createdAt,value
2022-12-16T00:00:20.558Z,364.09
2022-12-16T00:01:28.584Z,367.83
2022-12-16T00:02:32.433Z,362.51
2022-12-16T00:03:40.966Z,365.00
2022-12-16T00:04:44.862Z,358.98
2022-12-16T00:05:53.036Z,360.18
2022-12-16T00:06:58.662Z,365.83
2022-12-16T00:08:08.049Z,365.64
2022-12-16T00:09:12.932Z,368.59
2022-12-16T00:10:20.489Z,363.85
2022-12-16T00:11:24.800Z,359.46
2022-12-16T00:12:30.995Z,356.41
2022-12-16T00:13:40.531Z,352.61
2022-12-16T00:14:47.359Z,355.05
2022-12-16T00:15:50.685Z,363.96
2022-12-16T00:16:56.593Z,370.10
2022-12-16T00:17:59.958Z,358.37
2022-12-16T00:19:06.256Z,361.85
2022-12-16T00:20:12.555Z,366.85
2022-12-16T00:21:18.885Z,435.25
2022-12-16T00:22:22.851Z,350.98
2022-12-16T00:23:32.514Z,354.97
2022-12-16T00:24:36.516Z,350.23
2022-12-16T00:25:46.048Z,361.40
2022-12-16T00:26:52.605Z,377.93
2022-12-16T00:28:00.468Z,375.79
2022-12-16T00:29:07.280Z,366.32
2022-12-16T00:30:15.257Z,372.10
2022-12-16T00:31:22.115Z,369.14
2022-12-16T00:32:25.497Z,362.75
2022-12-16T00:33:32.573Z,382.75
2022-12-16T00:34:36.273Z,367.98
2022-12-16T00:35:45.886Z,376.93
2022-12-16T00:36:52.992Z,362.81
2022-12-16T00:37:56.335Z,359.16
2022-12-16T00:39:06.438Z,365.04
2022-12-16T00:40:11.976Z,365.33
2022-12-16T00:41:17.976Z,367.56
2022-12-16T00:42:22.200Z,361.39
2022-12-16T00:43:28.552Z,374.29
2022-12-16T00:44:32.058Z,371.81
2022-12-16T00:45:39.305Z,383.22
2022-12-16T00:46:42.842Z,367.24
2022-12-16T00:47:54.407Z,375.36
2022-12-16T00:48:58.616Z,359.93
2022-12-16T00:50:05.128Z,367.05
2022-12-16T00:51:08.535Z,362.86
2022-12-16T00:52:14.409Z,366.12
2022-12-16T00:53:18.993Z,370.39
2022-12-16T00:54:32.116Z,372.80
2022-12-16T00:55:35.450Z,379.36
2022-12-16T00:56:41.508Z,368.30
2022-12-16T00:57:45.758Z,363.42
2022-12-16T00:58:52.520Z,382.15
2022-12-16T00:59:58.224Z,381.65
2022-12-16T01:01:06.025Z,382.88
2022-12-16T01:02:11.332Z,369.56
2022-12-16T01:03:21.470Z,388.15
2022-12-16T01:04:29.678Z,386.53
2022-12-16T01:05:33.084Z,411.59
2022-12-16T01:06:39.117Z,398.74
2022-12-16T01:07:42.994Z,411.21
2022-12-16T01:08:49.485Z,405.25
2022-12-16T01:09:56.271Z,419.67
2022-12-16T01:11:02.278Z,420.62
2022-12-16T01:12:06.646Z,421.38
2022-12-16T01:13:12.922Z,411.87
2022-12-16T01:14:19.652Z,397.21
2022-12-16T01:15:24.290Z,388.19
2022-12-16T01:16:30.424Z,376.84
2022-12-16T01:17:35.303Z,397.74
2022-12-16T01:18:41.573Z,396.62
2022-12-16T01:19:47.569Z,385.59
2022-12-16T01:20:51.881Z,383.12
2022-12-16T01:21:57.825Z,378.16
2022-12-16T01:23:01.532Z,380.05
2022-12-16T01:24:13.315Z,370.39
2022-12-16T01:25:19.432Z,366.36
2022-12-16T01:26:26.972Z,370.04
2022-12-16T01:27:30.899Z,363.73
2022-12-16T01:28:36.852Z,369.25
2022-12-16T01:29:40.806Z,365.10
2022-12-16T01:30:46.767Z,361.82
2022-12-16T01:31:51.560Z,373.77
2022-12-16T01:32:58.241Z,382.44
2022-12-16T01:34:01.529Z,376.21
2022-12-16T01:35:29.489Z,381.59
2022-12-16T01:36:35.626Z,368.21
2022-12-16T01:37:40.089Z,377.04
2022-12-16T01:38:48.084Z,380.28
2022-12-16T01:39:52.580Z,392.43
2022-12-16T01:41:01.364Z,374.60
2022-12-16T01:42:12.368Z,380.17
2022-12-16T01:43:24.427Z,387.83
2022-12-16T01:44:28.290Z,384.91
2022-12-16T01:45:38.924Z,373.46
2022-12-16T01:46:47.645Z,363.87
2022-12-16T01:47:58.064Z,384.94
2022-12-16T01:49:14.401Z,382.27
2022-12-16T01:50:19.558Z,379.55
2022-12-16T01:51:33.215Z,390.21
2022-12-16T01:52:44.442Z,384.02
2022-12-16T01:53:58.976Z,385.94
2022-12-16T01:55:12.439Z,390.86
2022-12-16T01:56:27.718Z,377.46
2022-12-16T01:57:41.151Z,380.37
2022-12-16T01:58:49.748Z,378.37
2022-12-16T01:59:57.940Z,393.23
2022-12-16T02:01:06.403Z,381.51
2022-12-16T02:02:12.172Z,379.29
2022-12-16T02:03:19.869Z,374.19
2022-12-16T02:04:23.411Z,366.02
2022-12-16T02:05:32.041Z,372.81
2022-12-16T02:06:36.212Z,368.93
2022-12-16T02:07:42.105Z,365.33
2022-12-16T02:08:47.981Z,386.14
2022-12-16T02:09:52.167Z,392.52
2022-12-16T02:11:26.850Z,372.22
2022-12-16T02:12:52.510Z,383.09
2022-12-16T02:14:39.196Z,376.81
2022-12-16T02:15:57.843Z,382.11
2022-12-16T02:17:17.485Z,383.02
2022-12-16T02:18:39.702Z,383.52
2022-12-16T02:20:19.883Z,387.16
2022-12-16T02:21:51.840Z,384.96
2022-12-16T02:23:37.016Z,399.46
2022-12-16T02:25:35.637Z,410.17
2022-12-16T02:27:30.208Z,398.02
2022-12-16T02:29:12.886Z,406.60
2022-12-16T02:30:56.508Z,382.51
2022-12-16T02:32:20.139Z,387.41
2022-12-16T02:34:13.617Z,393.45
2022-12-16T02:35:36.065Z,373.20
2022-12-16T02:37:05.871Z,366.73
2022-12-16T02:38:29.019Z,384.64
2022-12-16T02:39:40.134Z,394.76
2022-12-16T02:40:58.791Z,369.56
2022-12-16T02:42:17.450Z,378.69
2022-12-16T02:43:53.633Z,373.95
2022-12-16T02:45:09.196Z,374.17
2022-12-16T02:46:20.164Z,379.55
2022-12-16T02:47:27.206Z,383.78
2022-12-16T02:48:30.805Z,376.70
2022-12-16T02:49:53.177Z,381.22
2022-12-16T02:50:56.984Z,366.54
2022-12-16T02:52:05.492Z,372.70
2022-12-16T02:53:13.871Z,379.75
2022-12-16T02:54:19.449Z,388.33
2022-12-16T02:55:41.454Z,370.15
2022-12-16T02:57:06.085Z,393.53
2022-12-16T02:58:28.244Z,367.12
2022-12-16T02:59:49.757Z,372.82
2022-12-16T03:01:11.961Z,372.93
2022-12-16T03:02:31.383Z,380.87
2022-12-16T03:03:49.780Z,378.49
2022-12-16T03:05:08.938Z,378.54
2022-12-16T03:06:22.266Z,389.54
2022-12-16T03:07:32.515Z,380.98
2022-12-16T03:08:47.212Z,404.08
2022-12-16T03:09:55.311Z,424.97
2022-12-16T03:11:08.389Z,397.09
2022-12-16T03:12:18.569Z,404.74
2022-12-16T03:13:28.064Z,406.67
2022-12-16T03:14:39.696Z,393.74
2022-12-16T03:15:51.590Z,420.18
2022-12-16T03:16:56.117Z,409.65
2022-12-16T03:18:10.873Z,435.98
2022-12-16T03:19:14.871Z,436.95
2022-12-16T03:20:30.455Z,451.00
2022-12-16T03:21:48.120Z,419.02
2022-12-16T03:22:55.827Z,400.94
2022-12-16T03:24:08.555Z,404.07
2022-12-16T03:25:12.744Z,392.29
2022-12-16T03:26:27.999Z,395.55
2022-12-16T03:27:46.752Z,386.16
2022-12-16T03:29:02.256Z,392.73
2022-12-16T03:30:13.556Z,394.32
2022-12-16T03:31:41.918Z,394.90
2022-12-16T03:32:57.182Z,397.48
2022-12-16T03:34:17.936Z,400.12
2022-12-16T03:35:29.267Z,394.48
2022-12-16T03:36:42.856Z,401.88
2022-12-16T03:37:53.371Z,400.80
2022-12-16T03:39:02.820Z,402.64
2022-12-16T03:40:14.887Z,396.17
2022-12-16T03:41:24.136Z,399.30
2022-12-16T03:42:31.590Z,401.28
2022-12-16T03:43:35.560Z,409.91
2022-12-16T03:44:42.776Z,401.64
2022-12-16T03:45:52.091Z,404.36
2022-12-16T03:46:58.226Z,408.41
2022-12-16T03:48:02.426Z,399.81
2022-12-16T03:49:11.023Z,421.80
2022-12-16T03:50:14.760Z,419.34
2022-12-16T03:51:21.739Z,428.14
2022-12-16T03:52:25.105Z,427.14
2022-12-16T03:53:32.350Z,430.53
2022-12-16T03:54:38.600Z,426.86
2022-12-16T03:55:41.918Z,410.61
2022-12-16T03:56:47.883Z,422.37
2022-12-16T03:57:51.293Z,430.45
2022-12-16T03:58:58.919Z,426.25
2022-12-16T04:00:02.296Z,418.21
2022-12-16T04:01:18.642Z,413.00
2022-12-16T04:02:22.249Z,420.88
2022-12-16T04:03:28.339Z,412.36
2022-12-16T04:04:35.231Z,422.74
2022-12-16T04:05:41.703Z,424.43
2022-12-16T04:06:45.095Z,411.94
2022-12-16T04:07:51.080Z,405.99
2022-12-16T04:08:54.575Z,416.13
2022-12-16T04:10:01.376Z,418.71
2022-12-16T04:11:19.735Z,413.37
2022-12-16T04:12:38.287Z,404.41
2022-12-16T04:13:56.668Z,409.15
2022-12-16T04:15:15.903Z,418.57
2022-12-16T04:16:34.183Z,421.85
2022-12-16T04:17:52.804Z,418.20
2022-12-16T04:19:11.356Z,418.94
2022-12-16T04:20:40.114Z,403.16
2022-12-16T04:21:58.532Z,412.90
2022-12-16T04:23:17.788Z,409.85
2022-12-16T04:24:32.036Z,414.03
2022-12-16T04:25:41.504Z,406.24
2022-12-16T04:26:59.768Z,398.29
2022-12-16T04:28:06.548Z,392.12
2022-12-16T04:29:09.854Z,384.68
2022-12-16T04:30:23.295Z,398.11
2022-12-16T04:31:27.637Z,395.62
2022-12-16T04:32:56.204Z,396.80
2022-12-16T04:34:14.595Z,363.91
2022-12-16T04:35:36.779Z,380.17
2022-12-16T04:37:04.645Z,388.58
2022-12-16T04:38:23.094Z,374.29
2022-12-16T04:39:50.185Z,366.82
2022-12-16T04:41:08.709Z,371.94
2022-12-16T04:42:27.664Z,391.53
2022-12-16T04:43:46.074Z,382.81
2022-12-16T04:45:04.596Z,373.60
2022-12-16T04:46:23.069Z,388.04
2022-12-16T04:47:42.297Z,381.66
2022-12-16T04:49:00.698Z,380.24
2022-12-16T04:50:19.347Z,375.79
2022-12-16T04:51:40.244Z,379.21
2022-12-16T04:52:59.341Z,385.89
2022-12-16T04:54:17.988Z,403.58
2022-12-16T04:55:36.481Z,386.41
2022-12-16T04:56:54.770Z,394.34
2022-12-16T04:58:17.385Z,392.51
2022-12-16T04:59:35.732Z,402.47
2022-12-16T05:00:55.751Z,401.98
2022-12-16T05:02:14.529Z,411.79
2022-12-16T05:03:33.859Z,412.54
2022-12-16T05:04:52.456Z,418.37
2022-12-16T05:06:10.730Z,434.95
2022-12-16T05:07:37.772Z,432.09
2022-12-16T05:08:57.407Z,444.17
2022-12-16T05:10:15.740Z,425.11
2022-12-16T05:11:34.044Z,417.47
2022-12-16T05:12:52.460Z,425.75
2022-12-16T05:14:11.590Z,406.45
2022-12-16T05:15:30.158Z,407.08
2022-12-16T05:16:48.579Z,409.64
2022-12-16T05:18:06.886Z,395.59
2022-12-16T05:19:31.473Z,385.93
2022-12-16T05:20:50.348Z,389.82
2022-12-16T05:22:09.247Z,388.54
2022-12-16T05:23:30.632Z,390.69
2022-12-16T05:24:53.060Z,379.00
2022-12-16T05:26:11.707Z,362.29
2022-12-16T05:27:30.061Z,374.96
2022-12-16T05:28:48.492Z,367.83
2022-12-16T05:30:07.703Z,376.67
2022-12-16T05:31:26.169Z,371.11
2022-12-16T05:32:44.631Z,364.10
2022-12-16T05:34:03.104Z,355.71
2022-12-16T05:35:23.038Z,360.35
2022-12-16T05:36:41.324Z,356.10
2022-12-16T05:37:59.614Z,355.01
2022-12-16T05:39:23.220Z,357.48
2022-12-16T05:40:42.468Z,360.07
2022-12-16T05:42:00.784Z,352.13
2022-12-16T05:43:19.190Z,356.61
2022-12-16T05:44:37.544Z,360.07
2022-12-16T05:45:57.845Z,352.99
2022-12-16T05:47:16.274Z,351.11
2022-12-16T05:48:34.705Z,353.40
2022-12-16T05:49:53.344Z,341.63
2022-12-16T05:51:13.054Z,334.55
2022-12-16T05:52:32.556Z,350.79
2022-12-16T05:53:51.061Z,349.70
2022-12-16T05:55:12.272Z,351.31
2022-12-16T05:56:31.370Z,345.61
2022-12-16T05:57:49.864Z,347.12
2022-12-16T05:59:08.264Z,360.66
2022-12-16T06:00:28.913Z,359.11
2022-12-16T06:01:48.136Z,354.78
2022-12-16T06:03:06.684Z,346.64
2022-12-16T06:04:30.940Z,339.91
2022-12-16T06:05:49.349Z,346.86
2022-12-16T06:07:08.625Z,338.72
2022-12-16T06:08:27.005Z,335.07
2022-12-16T06:09:56.307Z,347.42
2022-12-16T06:11:17.678Z,347.10
2022-12-16T06:12:36.853Z,331.00
2022-12-16T06:13:55.204Z,347.38
2022-12-16T06:15:13.688Z,359.52
2022-12-16T06:16:32.062Z,356.48
2022-12-16T06:17:51.442Z,347.67
2022-12-16T06:19:09.838Z,346.56
2022-12-16T06:20:28.388Z,358.46
2022-12-16T06:21:46.822Z,341.85
2022-12-16T06:23:07.303Z,341.63
2022-12-16T06:24:25.956Z,326.17
2022-12-16T06:25:44.924Z,326.27
2022-12-16T06:27:05.909Z,327.90
2022-12-16T06:28:25.080Z,352.86
2022-12-16T06:29:43.419Z,350.88
2022-12-16T06:31:01.824Z,344.07
2022-12-16T06:32:20.313Z,336.27
2022-12-16T06:33:39.877Z,340.44
2022-12-16T06:34:58.261Z,328.25
2022-12-16T06:36:16.502Z,339.20
2022-12-16T06:37:35.810Z,333.05
2022-12-16T06:38:54.902Z,317.14
2022-12-16T06:40:13.379Z,328.79
2022-12-16T06:41:31.886Z,333.46
2022-12-16T06:42:55.989Z,332.18
2022-12-16T06:44:15.472Z,332.97
2022-12-16T06:45:48.867Z,326.03
2022-12-16T06:47:07.314Z,328.97
2022-12-16T06:48:27.076Z,329.91
2022-12-16T06:49:46.352Z,325.07
2022-12-16T06:51:19.403Z,333.40
2022-12-16T06:52:37.758Z,337.11
2022-12-16T06:53:56.506Z,331.98
2022-12-16T06:55:15.953Z,330.69
2022-12-16T06:56:35.230Z,335.68
2022-12-16T06:57:56.503Z,325.10
2022-12-16T06:59:17.542Z,319.70
2022-12-16T07:00:39.704Z,328.77
2022-12-16T07:01:59.753Z,330.77
2022-12-16T07:03:18.429Z,318.48
2022-12-16T07:04:37.111Z,332.25
2022-12-16T07:05:56.923Z,335.00
2022-12-16T07:07:15.511Z,326.62
2022-12-16T07:08:34.047Z,322.68
2022-12-16T07:09:53.470Z,320.07
2022-12-16T07:11:17.285Z,312.69
2022-12-16T07:12:36.106Z,318.91
2022-12-16T07:14:11.846Z,317.11
2022-12-16T07:15:30.518Z,308.29
2022-12-16T07:16:50.234Z,303.80
2022-12-16T07:18:08.614Z,321.13
2022-12-16T07:19:26.898Z,315.64
2022-12-16T07:20:45.948Z,329.22
2022-12-16T07:22:05.163Z,328.73
2022-12-16T07:23:23.555Z,320.96
2022-12-16T07:24:41.876Z,320.04
2022-12-16T07:26:00.342Z,309.74
2022-12-16T07:27:20.351Z,326.33
2022-12-16T07:28:38.781Z,321.50
2022-12-16T07:29:59.907Z,318.96
2022-12-16T07:31:18.415Z,318.73
2022-12-16T07:32:37.603Z,323.63
2022-12-16T07:33:56.134Z,330.08
2022-12-16T07:35:14.415Z,328.70
2022-12-16T07:36:33.448Z,354.28
2022-12-16T07:37:54.980Z,364.53
2022-12-16T07:39:13.588Z,409.19
2022-12-16T07:40:32.130Z,412.43
2022-12-16T07:41:50.460Z,393.07
2022-12-16T07:43:12.075Z,407.46
2022-12-16T07:44:30.524Z,401.94
2022-12-16T07:45:51.529Z,429.38
2022-12-16T07:47:11.718Z,412.10
2022-12-16T07:48:39.957Z,418.10
2022-12-16T07:49:58.276Z,398.81
2022-12-16T07:51:18.220Z,395.54
2022-12-16T07:52:36.735Z,407.72
2022-12-16T07:54:07.796Z,446.62
2022-12-16T07:55:26.207Z,417.75
2022-12-16T07:56:44.511Z,405.25
2022-12-16T07:58:06.135Z,412.31
2022-12-16T07:59:25.240Z,407.09
2022-12-16T08:00:43.598Z,386.60
2022-12-16T08:02:04.726Z,391.37
2022-12-16T08:03:23.263Z,394.70
2022-12-16T08:04:42.648Z,382.52
2022-12-16T08:06:00.982Z,385.92
2022-12-16T08:07:19.813Z,382.23
2022-12-16T08:08:38.314Z,385.48
2022-12-16T08:09:57.446Z,381.77
2022-12-16T08:11:15.949Z,388.55
2022-12-16T08:12:34.360Z,390.43
2022-12-16T08:13:53.465Z,395.83
2022-12-16T08:15:13.051Z,405.55
2022-12-16T08:16:46.394Z,411.75
2022-12-16T08:18:09.009Z,411.16
2022-12-16T08:19:28.222Z,409.03
2022-12-16T08:20:47.730Z,392.32
2022-12-16T08:22:06.157Z,395.89
2022-12-16T08:23:24.361Z,396.00
2022-12-16T08:24:46.832Z,400.96
2022-12-16T08:26:10.710Z,405.65
2022-12-16T08:27:29.210Z,404.43
2022-12-16T08:28:47.587Z,402.67
2022-12-16T08:30:05.957Z,404.48
2022-12-16T08:31:25.208Z,412.91
2022-12-16T08:32:45.976Z,403.76
2022-12-16T08:34:06.953Z,429.49
2022-12-16T08:35:26.387Z,438.64
2022-12-16T08:36:45.575Z,442.07
2022-12-16T08:38:09.063Z,432.17
2022-12-16T08:39:31.990Z,425.10
2022-12-16T08:40:50.418Z,436.61
2022-12-16T08:42:11.511Z,426.77
2022-12-16T08:43:30.499Z,430.36
2022-12-16T08:44:49.209Z,401.27
2022-12-16T08:46:10.224Z,396.18
2022-12-16T08:47:32.492Z,412.83
2022-12-16T08:48:50.957Z,390.87
2022-12-16T08:50:11.957Z,422.80
2022-12-16T08:51:30.577Z,423.87
2022-12-16T08:52:49.916Z,415.15
2022-12-16T08:54:08.826Z,438.80
2022-12-16T08:55:29.739Z,460.83
2022-12-16T08:56:48.689Z,450.36
2022-12-16T08:58:11.496Z,448.52
2022-12-16T08:59:30.487Z,438.00
2022-12-16T09:00:48.995Z,422.20
2022-12-16T09:02:07.868Z,399.21
2022-12-16T09:03:28.347Z,411.70
2022-12-16T09:04:49.103Z,403.84
2022-12-16T09:06:14.478Z,412.79
2022-12-16T09:07:33.119Z,419.50
2022-12-16T09:08:53.837Z,418.84
2022-12-16T09:10:12.427Z,396.74
2022-12-16T09:11:31.226Z,405.43
2022-12-16T09:12:50.043Z,405.13
2022-12-16T09:14:10.123Z,403.49
2022-12-16T09:15:28.807Z,391.32
2022-12-16T09:16:47.233Z,399.37
2022-12-16T09:18:10.137Z,405.79
2022-12-16T09:19:29.547Z,406.98
2022-12-16T09:20:47.947Z,408.38
2022-12-16T09:22:08.978Z,428.58
2022-12-16T09:23:27.313Z,563.18
2022-12-16T09:24:46.723Z,501.69
2022-12-16T09:26:05.465Z,453.17
2022-12-16T09:27:23.977Z,457.87
2022-12-16T09:28:43.256Z,478.57
2022-12-16T09:30:05.415Z,449.01
2022-12-16T09:31:23.910Z,471.91
2022-12-16T09:32:42.555Z,505.79
2022-12-16T09:34:00.883Z,517.93
2022-12-16T09:35:21.090Z,481.91
2022-12-16T09:36:39.407Z,429.82
2022-12-16T09:38:05.743Z,429.55
2022-12-16T09:39:24.121Z,439.92
2022-12-16T09:40:43.404Z,457.66
2022-12-16T09:42:30.894Z,449.89
2022-12-16T09:44:12.399Z,419.21
2022-12-16T09:45:47.832Z,452.06
2022-12-16T09:47:25.948Z,469.88
2022-12-16T09:49:01.532Z,472.99
2022-12-16T09:50:33.559Z,496.99
2022-12-16T09:51:56.163Z,445.86
2022-12-16T09:53:27.100Z,421.30
2022-12-16T09:55:03.534Z,438.49
2022-12-16T09:56:32.734Z,442.73
2022-12-16T09:57:53.708Z,416.97
2022-12-16T09:59:27.074Z,396.70
2022-12-16T10:00:46.845Z,417.84
2022-12-16T10:02:08.438Z,439.99
2022-12-16T10:03:39.891Z,449.55
2022-12-16T10:05:16.004Z,450.54
2022-12-16T10:06:54.215Z,467.21
2022-12-16T10:08:37.267Z,434.72
2022-12-16T10:10:14.817Z,473.41
2022-12-16T10:11:52.616Z,508.53
2022-12-16T10:13:24.827Z,508.13
2022-12-16T10:14:54.724Z,529.02
2022-12-16T10:16:34.512Z,464.50
2022-12-16T10:18:01.657Z,472.21
2022-12-16T10:19:48.920Z,508.21
2022-12-16T10:21:11.336Z,491.02
2022-12-16T10:22:41.379Z,527.89
2022-12-16T10:24:16.664Z,555.31
2022-12-16T10:25:42.263Z,545.67
2022-12-16T10:27:13.808Z,516.75
2022-12-16T10:28:38.551Z,503.17
2022-12-16T10:30:01.810Z,499.95
2022-12-16T10:31:31.979Z,498.94
2022-12-16T10:32:59.112Z,481.98
2022-12-16T10:34:25.737Z,509.36
2022-12-16T10:35:52.735Z,546.90
2022-12-16T10:37:20.450Z,584.43
2022-12-16T10:38:52.402Z,565.24
2022-12-16T10:40:18.164Z,546.39
2022-12-16T10:41:44.781Z,519.58
2022-12-16T10:43:31.185Z,529.87
2022-12-16T10:45:03.404Z,534.87
2022-12-16T10:46:41.000Z,576.37
2022-12-16T10:48:00.579Z,512.37
2022-12-16T10:49:19.159Z,514.03
2022-12-16T10:50:37.884Z,510.93
2022-12-16T10:51:56.211Z,539.54
2022-12-16T10:53:20.075Z,523.38
2022-12-16T10:54:54.256Z,525.29
2022-12-16T10:56:40.632Z,543.91
2022-12-16T10:58:18.163Z,565.84
2022-12-16T10:59:37.801Z,510.33
2022-12-16T11:01:01.745Z,488.82
2022-12-16T11:02:34.344Z,517.38
2022-12-16T11:03:55.211Z,524.64
2022-12-16T11:05:14.455Z,507.40
2022-12-16T11:06:40.421Z,561.73
2022-12-16T11:08:09.598Z,574.18
2022-12-16T11:09:43.006Z,533.05
2022-12-16T11:11:02.260Z,581.14
2022-12-16T11:12:38.574Z,593.43
2022-12-16T11:13:56.976Z,563.79
2022-12-16T11:15:30.699Z,521.98
2022-12-16T11:16:50.033Z,541.06
2022-12-16T11:18:20.231Z,532.58
2022-12-16T11:19:42.039Z,576.16
2022-12-16T11:21:04.150Z,539.79
2022-12-16T11:22:30.728Z,493.62
2022-12-16T11:23:49.155Z,493.85
2022-12-16T11:25:28.671Z,504.99
2022-12-16T11:26:47.040Z,527.66
2022-12-16T11:28:19.560Z,497.91
2022-12-16T11:29:38.167Z,506.68
2022-12-16T11:30:56.570Z,555.04
2022-12-16T11:32:49.103Z,522.11
2022-12-16T11:34:11.354Z,483.96
2022-12-16T11:35:39.617Z,433.41
2022-12-16T11:37:03.490Z,452.40
2022-12-16T11:38:37.006Z,503.50
2022-12-16T11:40:08.346Z,447.32
2022-12-16T11:41:45.963Z,480.52
2022-12-16T11:43:11.657Z,540.53
2022-12-16T11:44:44.509Z,589.20
2022-12-16T11:46:07.959Z,577.93
2022-12-16T11:47:39.712Z,533.98
2022-12-16T11:49:05.211Z,530.56
2022-12-16T11:50:33.018Z,560.70
2022-12-16T11:52:28.116Z,540.08
2022-12-16T11:53:49.950Z,500.78
2022-12-16T11:55:56.011Z,498.19
2022-12-16T11:57:09.432Z,519.44
2022-12-16T11:58:43.386Z,540.02
2022-12-16T12:00:14.654Z,558.84
2022-12-16T12:01:45.470Z,548.21
2022-12-16T12:03:16.931Z,556.20
2022-12-16T12:04:35.532Z,545.11
2022-12-16T12:06:20.683Z,564.79
2022-12-16T12:07:50.516Z,650.86
2022-12-16T12:09:22.610Z,624.33
2022-12-16T12:11:11.591Z,570.55
2022-12-16T12:12:48.060Z,588.95
2022-12-16T12:14:27.155Z,559.81
2022-12-16T12:16:01.164Z,531.58
2022-12-16T12:17:47.044Z,580.77
2022-12-16T12:19:21.569Z,660.51
2022-12-16T12:21:02.560Z,571.84
2022-12-16T12:22:36.613Z,641.24
2022-12-16T12:24:13.768Z,629.60
2022-12-16T12:25:48.008Z,576.43
2022-12-16T12:27:19.547Z,554.54
2022-12-16T12:28:58.988Z,617.51
2022-12-16T12:30:25.639Z,618.31
2022-12-16T12:32:04.407Z,594.77
2022-12-16T12:33:46.885Z,593.57
2022-12-16T12:35:28.331Z,614.74
2022-12-16T12:37:04.472Z,533.60
2022-12-16T12:38:35.206Z,511.92
2022-12-16T12:40:12.614Z,544.85
2022-12-16T12:41:43.252Z,555.75
2022-12-16T12:43:09.031Z,517.80
2022-12-16T12:44:54.600Z,565.48
2022-12-16T12:46:30.216Z,590.02
2022-12-16T12:48:02.840Z,589.55
2022-12-16T12:49:37.562Z,545.10
2022-12-16T12:51:21.408Z,522.01
2022-12-16T12:53:18.657Z,524.02
2022-12-16T12:54:57.647Z,515.80
2022-12-16T12:56:31.986Z,518.32
2022-12-16T12:57:56.936Z,516.83
2022-12-16T12:59:27.405Z,483.01
2022-12-16T13:00:57.275Z,496.69
2022-12-16T13:02:20.678Z,511.69
2022-12-16T13:03:54.385Z,521.47
2022-12-16T13:05:19.731Z,535.88
2022-12-16T13:06:50.126Z,536.24
2022-12-16T13:08:09.572Z,508.70
2022-12-16T13:09:45.367Z,558.51
2022-12-16T13:11:03.652Z,559.20
2022-12-16T13:12:50.321Z,563.61
2022-12-16T13:14:08.647Z,563.90
2022-12-16T13:15:48.141Z,570.70
2022-12-16T13:17:17.996Z,550.03
2022-12-16T13:18:49.345Z,527.74
2022-12-16T13:20:14.437Z,561.51
2022-12-16T13:22:02.205Z,496.96
2022-12-16T13:23:46.939Z,522.01
2022-12-16T13:25:08.130Z,490.27
2022-12-16T13:26:26.631Z,506.26
2022-12-16T13:28:05.003Z,484.34
2022-12-16T13:29:38.350Z,494.52
2022-12-16T13:31:25.255Z,474.00
2022-12-16T13:32:44.664Z,509.04
2022-12-16T13:34:12.540Z,487.38
2022-12-16T13:35:34.438Z,498.27
2022-12-16T13:36:55.924Z,504.21
2022-12-16T13:38:18.655Z,509.29
2022-12-16T13:39:42.744Z,494.70
2022-12-16T13:41:11.912Z,458.66
2022-12-16T13:43:05.159Z,465.42
2022-12-16T13:44:24.897Z,545.78
2022-12-16T13:45:50.988Z,585.32
2022-12-16T13:47:12.368Z,551.08
2022-12-16T13:48:58.702Z,538.85
2022-12-16T13:50:53.247Z,533.12
2022-12-16T13:52:27.707Z,491.84
2022-12-16T13:53:53.670Z,511.60
2022-12-16T13:55:30.530Z,526.86
2022-12-16T13:56:56.977Z,517.74
2022-12-16T13:58:29.121Z,527.26
2022-12-16T13:59:49.030Z,525.01
2022-12-16T14:01:21.211Z,526.11
2022-12-16T14:02:54.077Z,514.40
2022-12-16T14:04:16.223Z,486.98
2022-12-16T14:05:44.696Z,507.24
2022-12-16T14:07:05.721Z,479.23
2022-12-16T14:08:43.103Z,487.73
2022-12-16T14:10:05.397Z,493.24
2022-12-16T14:11:40.189Z,540.29
2022-12-16T14:13:21.877Z,607.57
2022-12-16T14:14:51.273Z,659.24
2022-12-16T14:16:26.431Z,713.74
2022-12-16T14:18:01.094Z,762.78
2022-12-16T14:19:44.133Z,754.27
2022-12-16T14:21:13.611Z,784.21
2022-12-16T14:22:58.345Z,653.79
2022-12-16T14:24:35.896Z,600.91
2022-12-16T14:26:00.644Z,607.48
2022-12-16T14:27:32.799Z,621.10
2022-12-16T14:28:54.976Z,603.61
2022-12-16T14:30:14.931Z,773.94
2022-12-16T14:31:39.630Z,703.66
2022-12-16T14:32:58.165Z,644.21
2022-12-16T14:34:19.404Z,596.51
2022-12-16T14:35:42.806Z,644.03
2022-12-16T14:37:04.470Z,673.00
2022-12-16T14:38:42.289Z,785.03
2022-12-16T14:40:05.825Z,797.81
2022-12-16T14:41:30.290Z,771.38
2022-12-16T14:42:48.867Z,763.93
2022-12-16T14:44:09.981Z,694.39
2022-12-16T14:45:44.834Z,806.31
2022-12-16T14:47:08.358Z,735.61
2022-12-16T14:48:37.481Z,683.95
2022-12-16T14:50:08.049Z,635.06
2022-12-16T14:51:45.734Z,654.70
2022-12-16T14:53:29.565Z,629.27
2022-12-16T14:54:54.785Z,644.25
2022-12-16T14:56:31.103Z,674.68
2022-12-16T14:57:50.112Z,628.22
2022-12-16T14:59:29.792Z,689.05
2022-12-16T15:00:54.751Z,696.47
2022-12-16T15:02:35.861Z,672.25
2022-12-16T15:03:59.569Z,659.59
2022-12-16T15:05:20.800Z,632.39
2022-12-16T15:06:45.383Z,648.24
2022-12-16T15:08:07.050Z,664.92
2022-12-16T15:09:39.430Z,670.82
2022-12-16T15:10:59.758Z,665.78
2022-12-16T15:12:19.426Z,658.59
2022-12-16T15:13:38.713Z,652.94
2022-12-16T15:14:58.584Z,706.34
2022-12-16T15:16:21.841Z,753.89
2022-12-16T15:17:47.015Z,829.83
2022-12-16T15:19:16.312Z,845.26
2022-12-16T15:20:41.801Z,689.44
2022-12-16T15:22:02.565Z,671.72
2022-12-16T15:23:35.248Z,673.54
2022-12-16T15:25:03.859Z,672.33
2022-12-16T15:26:24.303Z,683.69
2022-12-16T15:27:51.809Z,729.56
2022-12-16T15:29:10.601Z,734.85
2022-12-16T15:30:52.303Z,736.70
2022-12-16T15:32:10.637Z,821.36
2022-12-16T15:33:34.961Z,918.56
2022-12-16T15:35:03.791Z,910.20
2022-12-16T15:36:40.627Z,872.67
2022-12-16T15:38:03.897Z,822.58
2022-12-16T15:39:52.233Z,804.33
2022-12-16T15:41:10.729Z,883.66
2022-12-16T15:42:39.804Z,879.33
2022-12-16T15:44:03.095Z,806.73
2022-12-16T15:45:35.617Z,745.56
2022-12-16T15:46:54.343Z,833.45
2022-12-16T15:48:14.143Z,857.54
2022-12-16T15:49:39.972Z,802.59
2022-12-16T15:51:09.407Z,857.49
2022-12-16T15:52:53.209Z,766.77
2022-12-16T15:54:19.430Z,775.94
2022-12-16T15:55:47.904Z,780.29
2022-12-16T15:57:07.050Z,793.33
2022-12-16T15:58:40.067Z,820.75
2022-12-16T16:00:13.508Z,873.53
2022-12-16T16:01:36.629Z,902.79
2022-12-16T16:03:04.324Z,893.97
2022-12-16T16:04:37.412Z,780.72
2022-12-16T16:05:56.171Z,756.59
2022-12-16T16:07:14.858Z,769.57
2022-12-16T16:08:34.341Z,730.98
2022-12-16T16:09:55.064Z,728.14
2022-12-16T16:11:16.423Z,731.12
2022-12-16T16:12:38.178Z,796.56
2022-12-16T16:14:04.241Z,881.76
2022-12-16T16:15:28.801Z,838.79
2022-12-16T16:16:48.099Z,749.17
2022-12-16T16:18:12.186Z,723.98
2022-12-16T16:19:39.827Z,697.67
2022-12-16T16:21:05.351Z,718.44
2022-12-16T16:22:28.938Z,766.61
2022-12-16T16:23:50.928Z,732.44
2022-12-16T16:25:10.480Z,701.86
2022-12-16T16:26:37.244Z,660.43
2022-12-16T16:27:55.561Z,662.47
2022-12-16T16:29:14.084Z,640.89
2022-12-16T16:30:33.371Z,651.39
2022-12-16T16:31:51.740Z,625.19
2022-12-16T16:33:12.806Z,606.52
2022-12-16T16:34:32.027Z,595.67
2022-12-16T16:35:51.289Z,594.68
2022-12-16T16:37:14.612Z,593.21
2022-12-16T16:38:33.038Z,580.64
2022-12-16T16:39:51.338Z,588.55
2022-12-16T16:41:11.039Z,612.48
2022-12-16T16:42:31.993Z,670.84
2022-12-16T16:43:50.404Z,673.08
2022-12-16T16:45:10.935Z,670.72
2022-12-16T16:46:49.963Z,728.21
2022-12-16T16:48:19.761Z,800.39
2022-12-16T16:49:44.530Z,774.05